createdAt,value
2023-05-21T00:01:42.733Z,12.65
2023-05-21T00:04:09.664Z,13.98
2023-05-21T00:06:36.619Z,13.23
2023-05-21T00:09:04.707Z,13.93
2023-05-21T00:11:32.409Z,13.38
2023-05-21T00:13:59.266Z,15.35
2023-05-21T00:16:27.092Z,14.45
2023-05-21T00:18:54.625Z,12.90
2023-05-21T00:21:26.088Z,11.73
2023-05-21T00:23:56.910Z,12.57
2023-05-21T00:26:24.273Z,13.13
2023-05-21T00:28:51.197Z,11.65
2023-05-21T00:31:19.009Z,11.07
2023-05-21T00:33:45.821Z,11.68
2023-05-21T00:36:14.328Z,12.65
2023-05-21T00:38:45.541Z,12.20
2023-05-21T00:41:12.424Z,14.50
2023-05-21T00:43:42.244Z,12.45
2023-05-21T00:46:13.773Z,12.90
2023-05-21T00:48:40.761Z,12.40
2023-05-21T00:51:07.644Z,12.05
2023-05-21T00:53:35.526Z,14.45
2023-05-21T00:56:03.473Z,15.05
2023-05-21T00:58:35.631Z,12.85
2023-05-21T01:01:06.675Z,14.35
2023-05-21T01:03:38.325Z,17.80
2023-05-21T01:06:10.322Z,13.43
2023-05-21T01:08:38.660Z,13.02
2023-05-21T01:11:07.452Z,15.35
2023-05-21T01:13:39.101Z,13.10
2023-05-21T01:16:08.597Z,14.75
2023-05-21T01:18:37.518Z,12.27
2023-05-21T01:21:07.286Z,14.10
2023-05-21T01:23:34.506Z,13.63
2023-05-21T01:26:01.304Z,12.75
2023-05-21T01:28:29.601Z,12.85
2023-05-21T01:30:59.514Z,10.95
2023-05-21T01:33:36.180Z,16.42
2023-05-21T01:36:21.649Z,11.82
2023-05-21T01:39:17.766Z,12.20
2023-05-21T01:41:47.747Z,11.63
2023-05-21T01:44:17.457Z,13.32
2023-05-21T01:46:44.358Z,14.30
2023-05-21T01:49:12.330Z,11.85
2023-05-21T01:51:39.687Z,11.07
2023-05-21T01:54:06.532Z,10.48
2023-05-21T01:56:33.934Z,11.65
2023-05-21T01:59:00.934Z,11.50
2023-05-21T02:01:30.291Z,13.52
2023-05-21T02:03:58.165Z,12.23
2023-05-21T02:06:25.223Z,11.20
2023-05-21T02:08:52.062Z,13.45
2023-05-21T02:11:18.868Z,11.70
2023-05-21T02:13:45.994Z,12.57
2023-05-21T02:16:14.912Z,13.38
2023-05-21T02:18:46.293Z,13.15
2023-05-21T02:21:13.255Z,11.23
2023-05-21T02:23:40.101Z,12.27
2023-05-21T02:26:06.873Z,10.75
2023-05-21T02:28:36.026Z,13.20
2023-05-21T02:31:02.864Z,11.65
2023-05-21T02:33:29.683Z,12.85
2023-05-21T02:35:56.533Z,11.73
2023-05-21T02:38:25.746Z,11.65
2023-05-21T02:40:52.983Z,12.20
2023-05-21T02:43:20.043Z,12.65
2023-05-21T02:45:47.401Z,11.85
2023-05-21T02:48:14.284Z,12.23
2023-05-21T02:50:41.066Z,14.10
2023-05-21T02:53:07.805Z,14.15
2023-05-21T02:55:34.889Z,12.20
2023-05-21T02:58:02.005Z,12.05
2023-05-21T03:00:28.794Z,11.35
2023-05-21T03:02:55.715Z,9.98
2023-05-21T03:05:22.570Z,11.13
2023-05-21T03:07:49.334Z,14.48
2023-05-21T03:10:16.274Z,10.07
2023-05-21T03:12:43.144Z,12.55
2023-05-21T03:15:10.862Z,10.43
2023-05-21T03:17:37.753Z,11.90
2023-05-21T03:20:05.489Z,11.82
2023-05-21T03:22:32.354Z,10.57
2023-05-21T03:25:01.841Z,11.20
2023-05-21T03:27:28.663Z,10.77
2023-05-21T03:29:55.782Z,10.77
2023-05-21T03:32:22.850Z,10.55
2023-05-21T03:34:49.646Z,11.13
2023-05-21T03:37:16.496Z,13.68
2023-05-21T03:39:43.244Z,8.45
2023-05-21T03:42:10.044Z,10.90
2023-05-21T03:44:36.889Z,10.88
2023-05-21T03:47:03.679Z,11.50
2023-05-21T03:49:30.604Z,12.55
2023-05-21T03:51:57.425Z,10.80
2023-05-21T03:54:24.249Z,9.40
2023-05-21T03:56:51.661Z,8.82
2023-05-21T04:22:35.190Z,9.13
2023-05-21T04:25:02.172Z,11.45
2023-05-21T04:27:28.931Z,11.15
2023-05-21T04:29:55.710Z,10.05
2023-05-21T04:32:22.510Z,8.35
2023-05-21T04:34:49.751Z,10.75
2023-05-21T04:37:19.833Z,7.78
2023-05-21T04:39:46.884Z,9.90
2023-05-21T04:42:13.706Z,9.65
2023-05-21T04:44:40.514Z,7.35
2023-05-21T04:47:07.864Z,8.60
2023-05-21T04:49:34.933Z,8.25
2023-05-21T04:52:02.498Z,8.77
2023-05-21T04:54:29.331Z,11.65
2023-05-21T04:56:56.336Z,9.90
2023-05-21T04:59:23.389Z,10.57
2023-05-21T05:01:50.207Z,8.43
2023-05-21T05:04:17.080Z,8.85
2023-05-21T05:06:43.889Z,8.50
2023-05-21T05:09:11.667Z,8.30
2023-05-21T05:11:38.555Z,9.23
2023-05-21T05:14:05.411Z,8.23
2023-05-21T05:16:32.367Z,11.00
2023-05-21T05:18:59.372Z,10.25
2023-05-21T05:21:26.237Z,8.70
2023-05-21T05:23:53.189Z,8.05
2023-05-21T05:26:21.325Z,8.38
2023-05-21T05:28:48.250Z,8.75
2023-05-21T05:31:15.097Z,8.30
2023-05-21T05:33:41.985Z,8.07
2023-05-21T05:36:08.799Z,7.75
2023-05-21T05:38:36.156Z,9.82
2023-05-21T05:41:02.922Z,9.77
2023-05-21T05:43:29.689Z,8.48
2023-05-21T05:45:56.575Z,8.43
2023-05-21T05:48:23.390Z,8.95
2023-05-21T05:50:50.354Z,11.23
2023-05-21T05:53:17.179Z,10.55
2023-05-21T05:55:43.946Z,9.07
2023-05-21T05:58:10.703Z,7.13
2023-05-21T06:00:38.098Z,10.95
2023-05-21T06:03:05.677Z,8.15
2023-05-21T06:05:32.539Z,6.57
2023-05-21T06:07:59.400Z,8.15
2023-05-21T06:10:26.228Z,9.20
2023-05-21T06:12:53.105Z,8.75
2023-05-21T06:15:20.058Z,9.40
2023-05-21T06:17:46.941Z,10.82
2023-05-21T06:20:13.883Z,8.73
2023-05-21T06:22:40.834Z,6.78
2023-05-21T06:25:08.433Z,6.95
2023-05-21T06:27:35.840Z,7.28
2023-05-21T06:30:02.902Z,7.97
2023-05-21T06:32:29.919Z,10.02
2023-05-21T06:34:56.814Z,6.93
2023-05-21T06:37:25.880Z,8.63
2023-05-21T06:39:53.473Z,8.48
2023-05-21T06:42:20.464Z,8.18
2023-05-21T06:44:47.255Z,10.80
2023-05-21T06:47:14.054Z,8.18
2023-05-21T06:49:41.165Z,9.63
2023-05-21T06:52:07.984Z,9.93
2023-05-21T06:54:35.086Z,8.32
2023-05-21T06:57:02.422Z,6.97
2023-05-21T06:59:29.240Z,8.90
2023-05-21T07:01:56.083Z,8.93
2023-05-21T07:04:22.943Z,9.10
2023-05-21T07:06:49.941Z,9.27
2023-05-21T07:09:18.188Z,10.00
2023-05-21T07:11:45.152Z,14.75
2023-05-21T07:14:11.896Z,9.30
2023-05-21T07:16:39.324Z,9.38
2023-05-21T07:19:06.275Z,8.93
2023-05-21T07:21:33.092Z,7.38
2023-05-21T07:23:59.992Z,9.02
2023-05-21T07:26:26.855Z,8.38
2023-05-21T07:28:53.734Z,9.13
2023-05-21T07:31:20.516Z,8.32
2023-05-21T07:33:47.293Z,9.13
2023-05-21T07:36:14.143Z,9.45
2023-05-21T07:38:40.905Z,12.13
2023-05-21T07:41:07.729Z,10.27
2023-05-21T07:43:36.296Z,10.73
2023-05-21T07:46:03.216Z,11.05
2023-05-21T07:48:30.036Z,7.88
2023-05-21T07:50:58.433Z,9.63
2023-05-21T07:53:25.171Z,7.03
2023-05-21T07:55:51.947Z,10.20
2023-05-21T07:58:19.800Z,6.50
2023-05-21T08:00:47.630Z,7.78
2023-05-21T08:03:18.797Z,7.90
2023-05-21T08:05:50.568Z,7.70
2023-05-21T08:08:19.298Z,7.25
2023-05-21T08:10:47.736Z,8.07
2023-05-21T08:13:16.428Z,7.05
2023-05-21T08:15:43.591Z,8.57
2023-05-21T08:18:11.748Z,8.15
2023-05-21T08:20:38.808Z,8.35
2023-05-21T08:23:05.558Z,11.00
2023-05-21T08:25:32.333Z,7.60
2023-05-21T08:27:59.073Z,8.57
2023-05-21T08:30:25.859Z,8.32
2023-05-21T08:32:52.836Z,9.18
2023-05-21T08:35:19.704Z,9.68
2023-05-21T08:37:46.560Z,8.30
2023-05-21T08:40:15.033Z,8.82
2023-05-21T08:42:49.748Z,9.98
2023-05-21T08:45:23.566Z,11.52
2023-05-21T08:47:57.720Z,10.73
2023-05-21T08:50:28.599Z,10.75
2023-05-21T08:52:55.532Z,10.88
2023-05-21T08:55:23.535Z,13.07
2023-05-21T08:57:51.516Z,12.20
2023-05-21T09:00:20.601Z,11.77
2023-05-21T09:02:47.456Z,11.93
2023-05-21T09:05:15.845Z,12.30
2023-05-21T09:07:55.351Z,11.48
2023-05-21T09:10:30.842Z,9.82
2023-05-21T09:12:58.109Z,10.00
2023-05-21T09:15:25.385Z,9.50
2023-05-21T09:17:52.291Z,10.77
2023-05-21T09:20:26.415Z,11.52
2023-05-21T09:22:54.299Z,10.88
2023-05-21T09:25:29.293Z,11.70
2023-05-21T09:27:57.031Z,11.85
2023-05-21T09:30:26.805Z,10.02
2023-05-21T09:32:59.913Z,10.73
2023-05-21T09:35:27.286Z,9.45
2023-05-21T09:37:54.447Z,9.23
2023-05-21T09:40:23.654Z,10.98
2023-05-21T09:42:53.210Z,11.35
2023-05-21T09:45:24.184Z,10.00
2023-05-21T09:47:53.520Z,9.52
2023-05-21T09:50:21.850Z,11.52
2023-05-21T09:52:52.666Z,10.23
2023-05-21T09:55:23.001Z,13.05
2023-05-21T09:57:52.297Z,11.15
2023-05-21T10:00:28.060Z,8.32
2023-05-21T10:02:57.832Z,10.48
2023-05-21T10:05:30.596Z,9.52
2023-05-21T10:08:03.076Z,9.73
2023-05-21T10:10:31.569Z,11.88
2023-05-21T10:13:08.610Z,9.75
2023-05-21T10:15:42.969Z,9.82
2023-05-21T10:18:13.114Z,12.70
2023-05-21T10:20:40.632Z,8.83
2023-05-21T10:23:08.148Z,9.43
2023-05-21T10:25:36.205Z,10.65
2023-05-21T10:28:03.532Z,8.40
2023-05-21T10:30:31.050Z,10.65
2023-05-21T10:32:59.974Z,9.18
2023-05-21T10:35:27.599Z,8.80
2023-05-21T10:37:56.993Z,11.15
2023-05-21T10:40:23.772Z,9.65
2023-05-21T10:43:04.206Z,11.95
2023-05-21T10:46:01.743Z,9.15
2023-05-21T10:48:41.826Z,10.20
2023-05-21T10:51:30.449Z,11.50
2023-05-21T10:54:31.734Z,11.63
2023-05-21T10:57:19.654Z,10.07
2023-05-21T10:59:47.696Z,9.80
2023-05-21T11:02:16.093Z,11.45
2023-05-21T11:04:49.034Z,12.73
2023-05-21T11:07:23.361Z,11.07
2023-05-21T11:09:53.082Z,9.85
2023-05-21T11:12:22.979Z,11.95
2023-05-21T11:14:57.713Z,9.30
2023-05-21T11:17:41.969Z,10.73
2023-05-21T11:20:16.541Z,11.65
2023-05-21T11:22:45.566Z,11.05
2023-05-21T11:25:12.459Z,9.50
2023-05-21T11:27:41.130Z,11.43
2023-05-21T11:30:16.646Z,9.23
2023-05-21T11:33:08.348Z,11.23
2023-05-21T11:35:50.060Z,9.75
2023-05-21T11:38:17.940Z,10.85
2023-05-21T11:40:55.267Z,11.27
2023-05-21T11:43:22.317Z,10.90
2023-05-21T11:45:52.525Z,9.07
2023-05-21T11:48:26.878Z,11.90
2023-05-21T11:50:54.358Z,12.30
2023-05-21T11:53:21.237Z,13.05
2023-05-21T11:55:48.107Z,11.80
2023-05-21T11:58:16.488Z,11.45
2023-05-21T12:00:43.281Z,13.52
2023-05-21T12:03:14.510Z,11.55
2023-05-21T12:05:48.977Z,9.73
2023-05-21T12:08:27.967Z,10.63
2023-05-21T12:11:01.737Z,11.70
2023-05-21T12:13:29.055Z,11.18
2023-05-21T12:15:56.283Z,9.85
2023-05-21T12:18:23.101Z,14.82
2023-05-21T12:20:51.961Z,14.00
2023-05-21T12:23:25.479Z,13.48
2023-05-21T12:25:53.692Z,14.75
2023-05-21T12:28:22.247Z,13.48
2023-05-21T12:30:49.071Z,16.23
2023-05-21T12:33:17.914Z,11.32
2023-05-21T12:35:50.030Z,13.80
2023-05-21T12:38:17.086Z,11.30
2023-05-21T12:40:45.550Z,12.60
2023-05-21T12:43:12.773Z,12.82
2023-05-21T12:45:39.861Z,12.75
2023-05-21T12:48:07.052Z,13.07
2023-05-21T12:50:35.819Z,15.80
2023-05-21T12:53:03.162Z,13.63
2023-05-21T12:55:31.686Z,12.90
2023-05-21T12:58:05.272Z,11.68
2023-05-21T13:00:32.667Z,10.70
2023-05-21T13:03:04.212Z,10.82
2023-05-21T13:05:31.244Z,12.68
2023-05-21T13:07:58.170Z,12.02
2023-05-21T13:10:25.061Z,18.05
2023-05-21T13:12:51.887Z,14.00
2023-05-21T13:15:19.126Z,15.73
2023-05-21T13:17:46.910Z,13.02
2023-05-21T13:20:20.553Z,17.75
2023-05-21T13:22:50.509Z,15.18
2023-05-21T13:25:24.442Z,15.32
2023-05-21T13:27:52.784Z,12.43
2023-05-21T13:30:20.600Z,13.10
2023-05-21T13:32:48.168Z,12.80
2023-05-21T13:35:16.505Z,11.88
2023-05-21T13:37:43.669Z,11.73
2023-05-21T13:40:14.431Z,12.60
2023-05-21T13:42:42.090Z,11.15
2023-05-21T13:45:11.830Z,13.02
2023-05-21T13:47:40.410Z,11.82
2023-05-21T13:50:09.048Z,12.38
2023-05-21T13:52:37.095Z,16.48
2023-05-21T13:55:05.120Z,11.27
2023-05-21T13:57:32.140Z,12.55
2023-05-21T13:59:59.812Z,16.98
2023-05-21T14:02:27.213Z,13.27
2023-05-21T14:04:54.235Z,12.02
2023-05-21T14:07:21.988Z,12.13
2023-05-21T14:09:49.030Z,13.85
2023-05-21T14:12:16.830Z,17.75
2023-05-21T14:14:43.655Z,12.25
2023-05-21T14:17:10.673Z,11.25
2023-05-21T14:19:37.548Z,14.73
2023-05-21T14:22:04.658Z,14.10
2023-05-21T14:24:31.492Z,13.15
2023-05-21T14:26:58.324Z,11.27
2023-05-21T14:29:25.198Z,11.65
2023-05-21T14:31:52.004Z,9.80
2023-05-21T14:34:18.800Z,10.98
2023-05-21T14:36:45.905Z,9.55
2023-05-21T14:39:12.698Z,11.40
2023-05-21T14:41:39.855Z,11.70
2023-05-21T14:44:06.784Z,12.32
2023-05-21T14:46:33.978Z,12.48
2023-05-21T14:49:00.897Z,13.80
2023-05-21T14:51:27.711Z,11.43
2023-05-21T14:53:55.696Z,11.75
2023-05-21T14:56:25.040Z,13.40
2023-05-21T14:58:52.099Z,13.43
2023-05-21T15:01:19.002Z,11.55
2023-05-21T15:03:46.113Z,11.52
2023-05-21T15:06:13.445Z,10.40
2023-05-21T15:08:40.255Z,11.30
2023-05-21T15:11:10.020Z,10.98
2023-05-21T15:13:37.706Z,12.43
2023-05-21T15:16:04.889Z,12.45
2023-05-21T15:18:33.084Z,11.00
2023-05-21T15:21:00.056Z,11.32
2023-05-21T15:23:26.987Z,14.35
2023-05-21T15:25:53.844Z,11.02
2023-05-21T15:28:20.723Z,10.88
2023-05-21T15:30:47.517Z,12.77
2023-05-21T15:33:14.388Z,13.32
2023-05-21T15:35:43.833Z,11.80
2023-05-21T15:38:11.290Z,13.70
2023-05-21T15:40:41.762Z,12.82
2023-05-21T15:43:08.701Z,13.03
2023-05-21T15:45:35.885Z,11.63
2023-05-21T15:48:02.978Z,12.60
2023-05-21T15:50:30.081Z,13.80
2023-05-21T15:52:56.894Z,14.00
2023-05-21T15:55:23.669Z,13.85
2023-05-21T15:57:50.586Z,15.45
2023-05-21T16:00:17.581Z,13.02
2023-05-21T16:02:44.486Z,12.40
2023-05-21T16:05:11.413Z,10.60
2023-05-21T16:07:38.571Z,11.77
2023-05-21T16:10:09.750Z,13.55
2023-05-21T16:12:36.548Z,14.23
2023-05-21T16:15:03.579Z,13.80
2023-05-21T16:17:30.366Z,10.35
2023-05-21T16:19:57.418Z,11.30
2023-05-21T16:22:24.953Z,11.07
2023-05-21T16:24:53.040Z,14.50
2023-05-21T16:27:19.969Z,13.27
2023-05-21T16:29:46.762Z,11.52
2023-05-21T16:32:13.974Z,12.52
2023-05-21T16:34:41.158Z,12.85
2023-05-21T16:37:09.670Z,12.60
2023-05-21T16:39:37.150Z,12.02
2023-05-21T16:42:04.389Z,11.45
2023-05-21T16:44:32.005Z,11.35
2023-05-21T16:46:59.742Z,12.02
2023-05-21T16:49:27.575Z,11.48
2023-05-21T16:51:54.462Z,13.23
2023-05-21T16:54:21.376Z,12.63
2023-05-21T16:56:48.265Z,11.63
2023-05-21T16:59:15.075Z,12.00
2023-05-21T17:01:42.868Z,11.88
2023-05-21T17:04:09.788Z,11.57
2023-05-21T17:06:36.675Z,14.82
2023-05-21T17:09:03.928Z,12.63
2023-05-21T17:11:31.174Z,11.50
2023-05-21T17:13:58.089Z,13.63
2023-05-21T17:16:25.162Z,11.25
2023-05-21T17:18:52.177Z,12.18
2023-05-21T17:21:19.541Z,12.35
2023-05-21T17:23:46.366Z,11.65
2023-05-21T17:26:13.900Z,12.35
2023-05-21T17:28:40.742Z,13.20
2023-05-21T17:31:12.665Z,12.00
2023-05-21T17:33:39.591Z,12.05
2023-05-21T17:36:06.634Z,12.60
2023-05-21T17:38:33.592Z,12.07
2023-05-21T17:41:00.438Z,11.02
2023-05-21T17:43:27.681Z,12.00
2023-05-21T17:45:54.612Z,15.40
2023-05-21T17:48:21.662Z,13.25
2023-05-21T17:50:48.570Z,11.68
2023-05-21T17:53:16.130Z,10.52
2023-05-21T17:55:42.995Z,12.60
2023-05-21T17:58:12.576Z,12.85
2023-05-21T18:00:39.356Z,12.10
2023-05-21T18:03:06.371Z,10.30
2023-05-21T18:05:33.422Z,11.32
2023-05-21T18:08:02.844Z,13.32
2023-05-21T18:10:29.928Z,18.20
2023-05-21T18:12:56.895Z,12.75
2023-05-21T18:15:23.693Z,11.70
2023-05-21T18:17:50.600Z,16.90
2023-05-21T18:20:18.102Z,11.77
2023-05-21T18:22:45.336Z,13.80
2023-05-21T18:25:12.219Z,12.02
2023-05-21T18:27:39.107Z,13.38
2023-05-21T18:30:06.956Z,11.50
2023-05-21T18:32:34.582Z,13.73
2023-05-21T18:35:01.401Z,11.88
2023-05-21T18:37:29.073Z,14.45
2023-05-21T18:39:55.906Z,10.70
2023-05-21T18:42:22.688Z,11.75
2023-05-21T18:44:51.235Z,11.07
2023-05-21T18:47:18.228Z,11.98
2023-05-21T18:49:45.160Z,11.15
2023-05-21T18:52:11.990Z,11.82
2023-05-21T18:54:38.914Z,11.52
2023-05-21T18:57:06.122Z,13.20
2023-05-21T18:59:33.085Z,12.32
2023-05-21T19:02:00.270Z,11.48
2023-05-21T19:04:27.461Z,12.05
2023-05-21T19:06:54.852Z,10.65
2023-05-21T19:09:21.785Z,11.48
2023-05-21T19:11:49.313Z,12.10
2023-05-21T19:14:16.135Z,12.23
2023-05-21T19:16:47.609Z,13.73
2023-05-21T19:19:14.440Z,13.15
2023-05-21T19:21:41.317Z,11.80
2023-05-21T19:24:08.326Z,12.27
2023-05-21T19:26:35.180Z,12.55
2023-05-21T19:29:02.045Z,11.23
2023-05-21T19:31:28.891Z,12.88
2023-05-21T19:33:55.708Z,15.50
2023-05-21T19:36:22.661Z,12.43
2023-05-21T19:38:50.725Z,11.88
2023-05-21T19:41:18.920Z,11.40
2023-05-21T19:43:46.211Z,11.32
2023-05-21T19:46:14.389Z,12.52
2023-05-21T19:48:42.866Z,11.70
2023-05-21T19:51:09.746Z,13.27
2023-05-21T19:53:36.699Z,11.80
2023-05-21T19:56:03.471Z,13.70
2023-05-21T19:58:30.828Z,13.35
2023-05-21T20:01:00.324Z,12.77
2023-05-21T20:03:28.395Z,11.40
2023-05-21T20:05:55.460Z,12.88
2023-05-21T20:08:22.773Z,19.02
2023-05-21T20:10:51.993Z,12.07
2023-05-21T20:13:21.272Z,13.40
2023-05-21T20:15:48.194Z,12.60
2023-05-21T20:18:15.581Z,15.48
2023-05-21T20:20:43.088Z,12.40
2023-05-21T20:23:10.052Z,13.05
2023-05-21T20:25:36.848Z,13.52
2023-05-21T20:28:05.064Z,14.30
2023-05-21T20:30:34.385Z,13.90
2023-05-21T20:33:02.844Z,13.57
2023-05-21T20:35:30.480Z,14.88
2023-05-21T20:37:57.398Z,13.75
2023-05-21T20:40:24.325Z,13.10
2023-05-21T20:42:53.257Z,12.48
2023-05-21T20:45:21.135Z,13.13
2023-05-21T20:47:49.663Z,14.20
2023-05-21T20:50:17.724Z,12.10
2023-05-21T20:52:47.092Z,13.27
2023-05-21T20:55:14.746Z,14.02
2023-05-21T20:57:41.963Z,14.77
2023-05-21T21:00:12.831Z,14.27
2023-05-21T21:02:40.613Z,15.47
2023-05-21T21:05:10.206Z,14.70
2023-05-21T21:07:37.365Z,12.55
2023-05-21T21:10:04.947Z,12.05
2023-05-21T21:12:31.744Z,14.55
2023-05-21T21:14:58.550Z,15.88
2023-05-21T21:17:25.418Z,12.88
2023-05-21T21:19:52.227Z,14.73
2023-05-21T21:22:19.244Z,15.70
2023-05-21T21:24:46.037Z,12.85
2023-05-21T21:27:12.993Z,14.00
2023-05-21T21:29:39.766Z,14.25
2023-05-21T21:32:07.153Z,17.90
2023-05-21T21:34:34.004Z,13.27
2023-05-21T21:37:00.798Z,13.60
2023-05-21T21:39:27.590Z,15.30
2023-05-21T21:41:54.409Z,16.38
2023-05-21T21:44:21.212Z,15.00
2023-05-21T21:46:48.359Z,14.10
2023-05-21T21:49:17.180Z,14.80
2023-05-21T21:51:44.994Z,15.05
2023-05-21T21:54:12.265Z,15.73
2023-05-21T21:56:39.103Z,15.43
2023-05-21T21:59:06.138Z,16.58
2023-05-21T22:01:33.457Z,19.73
2023-05-21T22:04:00.442Z,18.45
2023-05-21T22:06:28.466Z,22.92
2023-05-21T22:08:55.346Z,17.13
2023-05-21T22:11:22.671Z,18.20
2023-05-21T22:13:49.543Z,17.63
2023-05-21T22:16:16.509Z,17.88
2023-05-21T22:18:43.695Z,16.83
2023-05-21T22:21:14.161Z,17.67
2023-05-21T22:23:41.344Z,17.00
2023-05-21T22:26:09.617Z,17.10
2023-05-21T22:28:36.484Z,15.00
2023-05-21T22:31:03.478Z,15.57
2023-05-21T22:33:30.448Z,16.08
2023-05-21T22:35:58.013Z,15.18
2023-05-21T22:38:25.606Z,14.55
2023-05-21T22:40:52.411Z,17.13
2023-05-21T22:43:19.269Z,14.48
2023-05-21T22:45:46.353Z,15.50
2023-05-21T22:48:14.161Z,14.65
2023-05-21T22:50:41.173Z,14.93
2023-05-21T22:53:08.189Z,17.65
2023-05-21T22:55:34.991Z,14.27
2023-05-21T22:58:02.218Z,14.88
2023-05-21T23:00:29.160Z,19.05
2023-05-21T23:02:56.280Z,17.38
2023-05-21T23:05:23.251Z,16.55
2023-05-21T23:07:50.165Z,18.13
2023-05-21T23:10:17.091Z,14.35
2023-05-21T23:12:43.931Z,14.98
2023-05-21T23:15:11.208Z,14.68
2023-05-21T23:17:38.678Z,15.80
2023-05-21T23:20:07.468Z,14.80
2023-05-21T23:22:35.391Z,16.42
2023-05-21T23:25:02.581Z,15.48
2023-05-21T23:27:29.457Z,13.32
2023-05-21T23:29:56.519Z,16.30
2023-05-21T23:32:23.849Z,14.15
2023-05-21T23:34:50.873Z,13.50
2023-05-21T23:37:19.231Z,14.07
2023-05-21T23:39:49.384Z,13.75
2023-05-21T23:42:17.300Z,12.63
2023-05-21T23:44:44.263Z,14.35
2023-05-21T23:47:11.090Z,13.50
2023-05-21T23:49:37.930Z,16.15
2023-05-21T23:52:06.110Z,14.35
2023-05-21T23:54:33.080Z,13.40
2023-05-21T23:56:59.895Z,12.95
2023-05-21T23:59:26.755Z,14.02
